createdAt,value
2023-04-08T00:02:20.596Z,75.60
2023-04-08T00:04:47.921Z,75.70
2023-04-08T00:07:15.352Z,75.60
2023-04-08T00:09:42.587Z,75.60
2023-04-08T00:12:10.152Z,75.80
2023-04-08T00:14:38.393Z,75.80
2023-04-08T00:17:05.906Z,76.00
2023-04-08T00:19:36.028Z,76.00
2023-04-08T00:22:03.579Z,76.00
2023-04-08T00:24:30.872Z,76.00
2023-04-08T00:27:01.246Z,76.00
2023-04-08T00:29:28.880Z,76.30
2023-04-08T00:31:56.716Z,76.40
2023-04-08T00:34:24.851Z,76.40
2023-04-08T00:36:52.087Z,76.20
2023-04-08T00:39:19.263Z,76.20
2023-04-08T00:41:46.471Z,76.00
2023-04-08T00:44:13.658Z,75.90
2023-04-08T00:46:41.374Z,75.90
2023-04-08T00:49:08.864Z,76.00
2023-04-08T00:51:39.224Z,76.10
2023-04-08T00:54:07.372Z,76.10
2023-04-08T00:56:36.046Z,76.20
2023-04-08T00:59:05.349Z,76.30
2023-04-08T01:01:54.599Z,76.30
2023-04-08T01:04:55.965Z,76.40
2023-04-08T01:07:36.992Z,76.50
2023-04-08T01:10:18.613Z,76.50
2023-04-08T01:13:12.306Z,76.60
2023-04-08T01:15:42.619Z,76.60
2023-04-08T01:18:14.062Z,76.70
2023-04-08T01:20:44.814Z,77.00
2023-04-08T01:23:39.611Z,77.20
2023-04-08T01:26:07.167Z,77.30
2023-04-08T01:28:36.965Z,77.30
2023-04-08T01:31:07.153Z,77.30
2023-04-08T01:33:37.280Z,77.00
2023-04-08T01:36:06.613Z,77.10
2023-04-08T01:38:36.443Z,77.20
2023-04-08T01:41:05.841Z,77.30
2023-04-08T01:43:35.547Z,77.30
2023-04-08T01:46:03.331Z,77.20
2023-04-08T01:48:31.604Z,77.10
2023-04-08T01:51:01.097Z,77.20
2023-04-08T01:53:28.387Z,77.50
2023-04-08T01:56:06.736Z,77.50
2023-04-08T01:58:39.775Z,77.50
2023-04-08T02:01:17.458Z,77.50
2023-04-08T02:03:47.690Z,77.40
2023-04-08T02:06:15.166Z,77.30
2023-04-08T02:08:42.420Z,77.40
2023-04-08T02:11:10.386Z,77.30
2023-04-08T02:13:37.720Z,77.20
2023-04-08T02:16:41.363Z,77.00
2023-04-08T02:19:18.845Z,77.00
2023-04-08T02:21:57.695Z,77.00
2023-04-08T02:24:27.096Z,76.60
2023-04-08T02:26:56.937Z,76.70
2023-04-08T02:29:26.798Z,76.70
2023-04-08T02:31:54.737Z,76.80
2023-04-08T02:34:24.100Z,76.80
2023-04-08T02:36:52.743Z,76.80
2023-04-08T02:39:20.085Z,76.80
2023-04-08T02:41:47.357Z,76.80
2023-04-08T02:44:14.630Z,76.60
2023-04-08T02:46:41.860Z,76.40
2023-04-08T02:49:09.125Z,76.40
2023-04-08T02:51:36.368Z,76.50
2023-04-08T02:54:03.648Z,76.30
2023-04-08T02:56:30.909Z,76.30
2023-04-08T02:58:58.052Z,76.30
2023-04-08T03:01:25.441Z,76.20
2023-04-08T03:03:52.864Z,76.10
2023-04-08T03:06:20.303Z,76.00
2023-04-08T03:08:47.767Z,75.70
2023-04-08T03:11:15.120Z,75.40
2023-04-08T03:13:42.343Z,75.40
2023-04-08T03:16:09.592Z,75.50
2023-04-08T03:18:36.778Z,75.40
2023-04-08T03:21:04.041Z,75.30
2023-04-08T03:23:31.332Z,75.20
2023-04-08T03:25:58.570Z,75.30
2023-04-08T03:28:25.904Z,75.20
2023-04-08T03:30:53.374Z,75.30
2023-04-08T03:33:20.867Z,75.20
2023-04-08T03:35:48.217Z,75.20
2023-04-08T03:38:15.752Z,75.20
2023-04-08T03:40:43.000Z,75.20
2023-04-08T03:43:11.821Z,75.30
2023-04-08T03:45:39.214Z,75.30
2023-04-08T03:48:08.377Z,75.30
2023-04-08T03:50:35.857Z,75.30
2023-04-08T03:53:03.024Z,75.30
2023-04-08T03:55:30.295Z,75.20
2023-04-08T03:57:57.561Z,75.20
2023-04-08T04:00:24.801Z,75.20
2023-04-08T04:02:52.137Z,75.20
2023-04-08T04:05:19.536Z,75.30
2023-04-08T04:07:46.840Z,75.40
2023-04-08T04:10:14.291Z,75.50
2023-04-08T04:12:41.572Z,75.60
2023-04-08T04:15:09.213Z,75.70
2023-04-08T04:17:36.453Z,75.70
2023-04-08T04:20:07.693Z,75.70
2023-04-08T04:22:34.948Z,75.70
2023-04-08T04:25:03.216Z,75.60
2023-04-08T04:27:30.478Z,75.60
2023-04-08T04:29:57.737Z,75.60
2023-04-08T04:32:24.980Z,75.60
2023-04-08T04:34:52.451Z,75.50
2023-04-08T04:37:19.709Z,75.60
2023-04-08T04:39:46.939Z,75.60
2023-04-08T04:42:14.450Z,75.70
2023-04-08T04:44:41.623Z,75.60
2023-04-08T04:47:08.869Z,75.50
2023-04-08T04:49:36.060Z,75.70
2023-04-08T04:52:03.387Z,75.70
2023-04-08T04:54:30.811Z,76.00
2023-04-08T04:57:02.648Z,75.80
2023-04-08T04:59:29.911Z,75.80
2023-04-08T05:01:59.998Z,75.80
2023-04-08T05:04:27.340Z,75.70
2023-04-08T05:06:54.698Z,75.80
2023-04-08T05:09:22.156Z,75.80
2023-04-08T05:11:50.632Z,75.80
2023-04-08T05:14:18.010Z,75.90
2023-04-08T05:16:45.193Z,76.00
2023-04-08T05:19:12.389Z,76.00
2023-04-08T05:21:39.628Z,76.30
2023-04-08T05:24:06.947Z,76.20
2023-04-08T05:26:37.086Z,76.20
2023-04-08T05:29:04.403Z,76.30
2023-04-08T05:31:31.882Z,76.40
2023-04-08T05:33:59.265Z,76.60
2023-04-08T05:36:27.460Z,76.70
2023-04-08T05:38:54.693Z,76.60
2023-04-08T05:41:21.905Z,76.70
2023-04-08T05:43:49.224Z,77.00
2023-04-08T05:46:16.448Z,76.90
2023-04-08T05:48:43.765Z,76.90
2023-04-08T05:51:15.596Z,77.00
2023-04-08T05:53:42.805Z,76.90
2023-04-08T05:56:10.252Z,76.90
2023-04-08T05:58:37.487Z,77.10
2023-04-08T06:01:06.515Z,77.30
2023-04-08T06:03:34.860Z,77.30
2023-04-08T06:06:02.101Z,77.40
2023-04-08T06:08:29.757Z,77.70
2023-04-08T06:10:57.246Z,77.60
2023-04-08T06:13:25.969Z,77.70
2023-04-08T06:15:53.170Z,77.80
2023-04-08T06:18:20.516Z,77.80
2023-04-08T06:20:47.744Z,77.80
2023-04-08T06:23:15.346Z,78.00
2023-04-08T06:25:43.109Z,78.20
2023-04-08T06:28:10.421Z,78.10
2023-04-08T06:30:37.963Z,78.30
2023-04-08T06:33:05.536Z,78.30
2023-04-08T06:35:32.872Z,78.30
2023-04-08T06:38:00.338Z,78.40
2023-04-08T06:40:27.812Z,78.60
2023-04-08T06:42:55.108Z,78.60
2023-04-08T06:45:23.174Z,79.50
2023-04-08T06:47:50.759Z,78.70
2023-04-08T06:50:18.103Z,78.60
2023-04-08T06:52:45.370Z,78.60
2023-04-08T06:55:12.869Z,78.60
2023-04-08T06:57:40.122Z,78.50
2023-04-08T07:00:08.912Z,79.00
2023-04-08T07:02:36.580Z,79.00
2023-04-08T07:05:04.519Z,78.80
2023-04-08T07:07:32.229Z,78.80
2023-04-08T07:09:59.676Z,78.50
2023-04-08T07:12:26.943Z,78.80
2023-04-08T07:14:54.269Z,78.60
2023-04-08T07:17:22.030Z,78.80
2023-04-08T07:19:49.652Z,78.40
2023-04-08T07:22:17.351Z,78.70
2023-04-08T07:24:49.669Z,78.70
2023-04-08T07:27:17.477Z,78.80
2023-04-08T07:29:44.786Z,78.80
2023-04-08T07:32:13.253Z,78.80
2023-04-08T07:34:42.700Z,78.90
2023-04-08T07:37:10.168Z,78.60
2023-04-08T07:39:37.378Z,78.70
2023-04-08T07:42:04.607Z,78.60
2023-04-08T07:44:33.876Z,78.50
2023-04-08T07:47:01.216Z,78.60
2023-04-08T07:49:28.423Z,79.10
2023-04-08T07:51:55.856Z,78.90
2023-04-08T07:54:23.146Z,78.80
2023-04-08T07:56:50.310Z,79.20
2023-04-08T07:59:17.688Z,78.70
2023-04-08T08:01:45.088Z,79.00
2023-04-08T08:04:12.523Z,78.70
2023-04-08T08:06:39.875Z,78.40
2023-04-08T08:09:07.160Z,78.00
2023-04-08T08:11:34.434Z,77.70
2023-04-08T08:14:03.169Z,78.00
2023-04-08T08:16:32.414Z,77.70
2023-04-08T08:18:59.940Z,77.40
2023-04-08T08:21:27.283Z,77.50
2023-04-08T08:23:54.908Z,77.40
2023-04-08T08:26:22.108Z,77.40
2023-04-08T08:28:49.393Z,77.10
2023-04-08T08:31:16.838Z,77.30
2023-04-08T08:33:44.294Z,77.00
2023-04-08T08:36:11.553Z,77.10
2023-04-08T08:38:39.262Z,76.70
2023-04-08T08:41:07.639Z,76.50
2023-04-08T08:43:35.648Z,76.70
2023-04-08T08:46:03.760Z,76.90
2023-04-08T08:48:32.994Z,76.90
2023-04-08T08:51:01.087Z,76.60
2023-04-08T08:53:34.228Z,76.40
2023-04-08T08:58:34.856Z,76.70
2023-04-08T09:01:02.076Z,76.70
2023-04-08T09:03:29.700Z,76.80
2023-04-08T09:05:59.165Z,77.20
2023-04-08T09:08:38.041Z,77.40
2023-04-08T09:11:36.371Z,77.40
2023-04-08T09:14:03.810Z,76.80
2023-04-08T09:16:32.367Z,76.80
2023-04-08T09:19:11.858Z,76.90
2023-04-08T09:21:41.484Z,77.10
2023-04-08T09:24:28.044Z,77.10
2023-04-08T09:26:56.418Z,77.10
2023-04-08T09:29:26.173Z,77.20
2023-04-08T09:32:00.466Z,77.50
2023-04-08T09:34:29.628Z,77.70
2023-04-08T09:36:57.185Z,77.90
2023-04-08T09:39:24.574Z,78.20
2023-04-08T09:41:53.010Z,78.30
2023-04-08T09:44:22.177Z,78.30
2023-04-08T09:47:01.591Z,78.40
2023-04-08T09:49:54.004Z,78.90
2023-04-08T09:52:51.648Z,78.60
2023-04-08T09:55:23.838Z,78.80
2023-04-08T09:58:04.454Z,78.70
2023-04-08T10:00:44.164Z,78.80
2023-04-08T10:03:20.733Z,78.50
2023-04-08T10:05:50.452Z,78.10
2023-04-08T10:08:18.088Z,77.30
2023-04-08T10:10:47.970Z,77.60
2023-04-08T10:13:16.381Z,77.40
2023-04-08T10:15:46.965Z,76.70
2023-04-08T10:18:14.773Z,77.50
2023-04-08T10:20:45.041Z,76.40
2023-04-08T10:23:18.498Z,76.40
2023-04-08T10:25:48.314Z,76.60
2023-04-08T10:28:18.064Z,76.60
2023-04-08T10:30:50.494Z,76.70
2023-04-08T10:33:40.690Z,76.70
2023-04-08T10:36:11.706Z,76.90
2023-04-08T10:38:45.104Z,76.90
2023-04-08T10:41:14.571Z,76.80
2023-04-08T10:43:41.888Z,76.70
2023-04-08T10:46:12.196Z,76.70
2023-04-08T10:48:39.553Z,76.70
2023-04-08T10:51:06.879Z,76.90
2023-04-08T10:53:36.066Z,77.00
2023-04-08T10:56:13.468Z,77.00
2023-04-08T10:58:59.271Z,77.20
2023-04-08T11:01:27.715Z,77.50
2023-04-08T11:03:55.222Z,77.60
2023-04-08T11:06:23.498Z,78.00
2023-04-08T11:08:50.767Z,78.30
2023-04-08T11:11:19.816Z,78.40
2023-04-08T11:13:52.781Z,78.10
2023-04-08T11:16:24.201Z,78.30
2023-04-08T11:18:51.989Z,78.30
2023-04-08T11:21:19.514Z,78.60
2023-04-08T11:23:52.082Z,78.40
2023-04-08T11:26:21.203Z,78.80
2023-04-08T11:28:52.498Z,78.90
2023-04-08T11:31:24.690Z,78.90
2023-04-08T11:33:56.581Z,78.70
2023-04-08T11:36:26.030Z,78.60
2023-04-08T11:38:55.800Z,78.50
2023-04-08T11:41:23.862Z,78.70
2023-04-08T11:43:57.119Z,79.00
2023-04-08T11:46:25.057Z,79.00
2023-04-08T11:49:07.787Z,79.20
2023-04-08T11:51:55.075Z,79.10
2023-04-08T11:54:35.439Z,79.10
2023-04-08T11:57:03.141Z,78.50
2023-04-08T11:59:30.475Z,78.60
2023-04-08T12:02:02.051Z,78.80
2023-04-08T12:04:30.330Z,78.90
2023-04-08T12:06:58.583Z,78.70
2023-04-08T12:09:25.922Z,79.00
2023-04-08T12:11:53.296Z,78.90
2023-04-08T12:14:22.094Z,78.80
2023-04-08T12:16:49.321Z,78.40
2023-04-08T12:19:19.772Z,77.40
2023-04-08T12:21:47.036Z,77.50
2023-04-08T12:24:14.268Z,77.30
2023-04-08T12:26:43.147Z,76.60
2023-04-08T12:29:11.872Z,76.40
2023-04-08T12:31:39.504Z,76.50
2023-04-08T12:34:07.202Z,76.90
2023-04-08T12:36:34.518Z,76.90
2023-04-08T12:39:01.823Z,77.10
2023-04-08T12:41:30.054Z,77.20
2023-04-08T12:44:02.514Z,76.70
2023-04-08T12:46:29.930Z,75.10
2023-04-08T12:49:04.202Z,74.80
2023-04-08T12:51:33.148Z,73.70
2023-04-08T12:54:04.882Z,72.30
2023-04-08T12:56:32.604Z,71.50
2023-04-08T12:59:01.134Z,70.50
2023-04-08T13:01:28.277Z,69.60
2023-04-08T13:03:57.785Z,69.20
2023-04-08T13:06:25.924Z,68.90
2023-04-08T13:08:53.585Z,68.30
2023-04-08T13:11:21.478Z,67.70
2023-04-08T13:13:48.718Z,67.70
2023-04-08T13:16:17.198Z,68.00
2023-04-08T13:18:44.357Z,68.20
2023-04-08T13:21:11.600Z,68.50
2023-04-08T13:23:38.995Z,68.90
2023-04-08T13:26:06.821Z,68.50
2023-04-08T13:28:38.695Z,67.90
2023-04-08T13:31:11.153Z,68.30
2023-04-08T13:33:38.930Z,69.60
2023-04-08T13:36:06.696Z,68.80
2023-04-08T13:38:34.073Z,69.60
2023-04-08T13:41:01.558Z,69.60
2023-04-08T13:43:29.675Z,69.70
2023-04-08T13:45:59.868Z,69.60
2023-04-08T13:48:27.244Z,69.60
2023-04-08T13:50:57.707Z,69.80
2023-04-08T13:53:26.462Z,70.00
2023-04-08T13:55:56.078Z,69.50
2023-04-08T13:58:24.513Z,69.20
2023-04-08T14:00:52.562Z,69.20
2023-04-08T14:06:12.978Z,69.30
2023-04-08T14:08:40.334Z,69.50
2023-04-08T14:11:28.879Z,69.70
2023-04-08T14:14:16.367Z,69.40
2023-04-08T14:16:43.770Z,69.30
2023-04-08T14:19:11.202Z,69.60
2023-04-08T14:21:41.438Z,69.80
2023-04-08T14:24:08.678Z,70.10
2023-04-08T14:26:36.755Z,70.10
2023-04-08T14:29:06.775Z,70.20
2023-04-08T14:31:35.631Z,70.50
2023-04-08T14:34:03.556Z,70.50
2023-04-08T14:36:34.090Z,70.50
2023-04-08T14:39:01.748Z,70.10
2023-04-08T14:41:29.047Z,69.60
2023-04-08T14:43:56.344Z,69.50
2023-04-08T14:46:24.857Z,69.20
2023-04-08T14:48:53.388Z,69.10
2023-04-08T14:51:20.719Z,69.10
2023-04-08T14:53:47.976Z,69.40
2023-04-08T14:56:16.801Z,69.60
2023-04-08T14:58:43.893Z,69.50
2023-04-08T15:01:11.992Z,69.20
2023-04-08T15:03:39.488Z,69.20
2023-04-08T15:06:07.582Z,68.80
2023-04-08T15:08:35.295Z,69.00
2023-04-08T15:11:02.566Z,69.10
2023-04-08T15:13:29.872Z,69.40
2023-04-08T15:15:59.985Z,69.60
2023-04-08T15:18:27.643Z,69.90
2023-04-08T15:20:56.577Z,69.90
2023-04-08T15:23:26.582Z,70.10
2023-04-08T15:25:53.951Z,70.00
2023-04-08T15:28:21.300Z,70.10
2023-04-08T15:30:50.442Z,70.30
2023-04-08T15:33:17.786Z,70.10
2023-04-08T15:35:48.576Z,70.00
2023-04-08T15:38:16.315Z,70.20
2023-04-08T15:40:45.569Z,70.40
2023-04-08T15:43:14.706Z,70.60
2023-04-08T15:45:45.945Z,70.70
2023-04-08T15:48:13.270Z,70.60
2023-04-08T15:50:40.572Z,70.60
2023-04-08T15:53:08.059Z,70.80
2023-04-08T15:55:42.864Z,71.00
2023-04-08T15:58:10.140Z,70.90
2023-04-08T16:00:37.617Z,71.00
2023-04-08T16:03:08.413Z,71.00
2023-04-08T16:05:36.433Z,71.10
2023-04-08T16:08:06.343Z,71.30
2023-04-08T16:10:34.438Z,71.80
2023-04-08T16:13:01.854Z,71.80
2023-04-08T16:15:29.164Z,72.00
2023-04-08T16:17:56.486Z,72.30
2023-04-08T16:20:23.720Z,72.70
2023-04-08T16:22:51.317Z,73.20
2023-04-08T16:25:18.656Z,73.60
2023-04-08T16:27:45.909Z,74.10
2023-04-08T16:30:13.862Z,74.50
2023-04-08T16:32:42.000Z,74.80
2023-04-08T16:35:09.714Z,75.10
2023-04-08T16:37:36.979Z,75.30
2023-04-08T16:40:04.877Z,75.50
2023-04-08T16:42:32.937Z,75.90
2023-04-08T16:45:00.447Z,76.20
2023-04-08T16:47:29.020Z,76.40
2023-04-08T16:49:58.470Z,76.50
2023-04-08T16:52:25.818Z,76.70
2023-04-08T16:54:53.345Z,77.00
2023-04-08T16:57:28.159Z,77.00
2023-04-08T16:59:55.667Z,77.70
2023-04-08T17:02:23.123Z,77.80
2023-04-08T17:04:50.863Z,78.00
2023-04-08T17:07:19.247Z,78.20
2023-04-08T17:09:52.260Z,78.40
2023-04-08T17:12:19.748Z,78.70
2023-04-08T17:14:47.797Z,78.80
2023-04-08T17:17:16.981Z,79.20
2023-04-08T17:19:44.386Z,79.30
2023-04-08T17:22:11.552Z,80.00
2023-04-08T17:24:38.953Z,80.10
2023-04-08T17:27:06.141Z,80.20
2023-04-08T17:29:35.675Z,80.20
2023-04-08T17:32:04.738Z,80.20
2023-04-08T17:34:33.081Z,80.20
2023-04-08T17:37:00.391Z,80.70
2023-04-08T17:39:27.765Z,80.90
2023-04-08T17:41:55.026Z,80.90
2023-04-08T17:44:22.284Z,80.90
2023-04-08T17:46:49.526Z,81.00
2023-04-08T17:49:16.802Z,81.40
2023-04-08T17:51:43.955Z,81.50
2023-04-08T17:54:11.723Z,81.40
2023-04-08T17:56:38.956Z,81.60
2023-04-08T17:59:06.576Z,81.70
2023-04-08T18:01:33.982Z,81.80
2023-04-08T18:04:01.362Z,81.90
2023-04-08T18:06:28.885Z,82.00
2023-04-08T18:08:57.712Z,82.10
2023-04-08T18:11:26.664Z,82.10
2023-04-08T18:13:55.378Z,82.20
2023-04-08T18:16:23.033Z,82.30
2023-04-08T18:18:50.595Z,82.40
2023-04-08T18:21:18.509Z,82.40
2023-04-08T18:23:49.269Z,82.60
2023-04-08T18:26:18.357Z,82.70
2023-04-08T18:28:46.173Z,82.80
2023-04-08T18:31:13.551Z,82.70
2023-04-08T18:33:40.873Z,82.90
2023-04-08T18:36:12.802Z,82.90
2023-04-08T18:38:41.257Z,83.00
2023-04-08T18:41:09.953Z,83.10
2023-04-08T18:43:37.299Z,83.40
2023-04-08T18:46:13.626Z,83.40
2023-04-08T18:48:41.120Z,83.30
2023-04-08T18:51:08.504Z,83.40
2023-04-08T18:53:35.789Z,83.50
2023-04-08T18:56:03.759Z,83.80
2023-04-08T18:58:32.034Z,83.80
2023-04-08T19:00:59.249Z,84.40
2023-04-08T19:03:27.512Z,83.80
2023-04-08T19:05:55.512Z,83.90
2023-04-08T19:08:22.800Z,83.90
2023-04-08T19:10:50.054Z,83.90
2023-04-08T19:13:18.379Z,83.70
2023-04-08T19:15:45.794Z,83.70
2023-04-08T19:18:12.992Z,83.80
2023-04-08T19:20:41.604Z,83.90
2023-04-08T19:23:08.891Z,83.60
2023-04-08T19:25:36.567Z,83.50
2023-04-08T19:28:06.066Z,83.50
2023-04-08T19:30:38.105Z,83.40
2023-04-08T19:33:05.910Z,83.60
2023-04-08T19:35:33.440Z,83.60
2023-04-08T19:38:00.764Z,83.50
2023-04-08T19:40:28.654Z,83.60
2023-04-08T19:42:56.108Z,83.40
2023-04-08T19:45:25.571Z,83.50
2023-04-08T19:47:52.955Z,83.30
2023-04-08T19:50:22.296Z,83.20
2023-04-08T19:52:57.970Z,82.90
2023-04-08T19:55:27.781Z,83.00
2023-04-08T19:57:55.705Z,83.20
2023-04-08T20:00:23.558Z,82.90
2023-04-08T20:02:51.140Z,82.90
2023-04-08T20:05:21.583Z,82.90
2023-04-08T20:07:49.090Z,82.90
2023-04-08T20:10:18.003Z,82.60
2023-04-08T20:12:45.414Z,82.80
2023-04-08T20:15:23.638Z,82.70
2023-04-08T20:17:51.381Z,82.50
2023-04-08T20:20:18.795Z,82.40
2023-04-08T20:22:47.184Z,82.50
2023-04-08T20:25:16.688Z,82.30
2023-04-08T20:27:43.993Z,82.40
2023-04-08T20:30:14.711Z,82.20
2023-04-08T20:32:43.173Z,82.00
2023-04-08T20:35:11.428Z,82.00
2023-04-08T20:37:44.717Z,82.00
2023-04-08T20:40:12.346Z,82.10
2023-04-08T20:42:39.667Z,82.10
2023-04-08T20:45:08.153Z,82.10
2023-04-08T20:47:35.438Z,82.20
2023-04-08T20:50:03.555Z,82.20
2023-04-08T20:52:30.923Z,82.30
2023-04-08T20:54:58.618Z,82.30
2023-04-08T20:57:25.930Z,82.10
2023-04-08T20:59:53.208Z,82.10
2023-04-08T21:02:21.882Z,82.40
2023-04-08T21:04:49.558Z,82.60
2023-04-08T21:07:17.733Z,82.90
2023-04-08T21:09:48.598Z,83.00
2023-04-08T21:12:15.985Z,83.00
2023-04-08T21:14:45.411Z,83.10
2023-04-08T21:17:12.685Z,83.30
2023-04-08T21:19:42.079Z,83.30
2023-04-08T21:22:09.409Z,83.40
2023-04-08T21:24:38.069Z,83.60
2023-04-08T21:27:05.442Z,83.80
2023-04-08T21:29:32.626Z,83.70
2023-04-08T21:31:59.885Z,83.90
2023-04-08T21:34:27.163Z,83.90
2023-04-08T21:36:54.483Z,83.70
2023-04-08T21:39:22.374Z,83.80
2023-04-08T21:41:49.704Z,83.80
2023-04-08T21:44:17.100Z,83.90
2023-04-08T21:46:44.605Z,84.10
2023-04-08T21:49:11.965Z,84.10
2023-04-08T21:51:40.868Z,84.10
2023-04-08T21:54:08.199Z,84.10
2023-04-08T21:56:35.404Z,84.20
2023-04-08T21:59:02.604Z,84.30
2023-04-08T22:01:30.362Z,84.50
2023-04-08T22:03:58.116Z,84.40
2023-04-08T22:06:32.641Z,84.50
2023-04-08T22:09:00.371Z,84.50
2023-04-08T22:11:27.686Z,84.60
2023-04-08T22:13:54.879Z,84.60
2023-04-08T22:16:23.365Z,84.70
2023-04-08T22:18:51.475Z,84.70
2023-04-08T22:21:19.770Z,84.90
2023-04-08T22:23:47.095Z,85.30
2023-04-08T22:26:15.595Z,85.60
2023-04-08T22:28:43.489Z,85.60
2023-04-08T22:31:12.466Z,85.60
2023-04-08T22:33:40.333Z,85.70
2023-04-08T22:36:07.739Z,86.10
2023-04-08T22:38:35.081Z,86.00
2023-04-08T22:41:02.399Z,86.10
2023-04-08T22:43:29.765Z,86.40
2023-04-08T22:45:57.223Z,86.40
2023-04-08T22:48:24.587Z,86.60
2023-04-08T22:50:51.976Z,86.90
2023-04-08T22:53:19.200Z,86.90
2023-04-08T22:55:46.483Z,86.90
2023-04-08T22:58:13.759Z,86.90
2023-04-08T23:00:41.498Z,86.90
2023-04-08T23:03:08.694Z,86.90
2023-04-08T23:05:36.201Z,87.10
2023-04-08T23:08:05.544Z,87.20
2023-04-08T23:10:32.793Z,87.40
2023-04-08T23:12:59.969Z,87.30
2023-04-08T23:15:27.204Z,87.40
2023-04-08T23:17:54.579Z,87.40
2023-04-08T23:20:21.888Z,87.50
2023-04-08T23:22:49.190Z,87.80
2023-04-08T23:25:16.959Z,87.90
2023-04-08T23:27:45.736Z,87.80
2023-04-08T23:30:13.028Z,87.80
2023-04-08T23:32:40.326Z,88.10
2023-04-08T23:35:09.100Z,88.70
2023-04-08T23:37:36.316Z,88.00
2023-04-08T23:40:03.809Z,88.10
2023-04-08T23:42:31.043Z,88.20
2023-04-08T23:44:58.251Z,88.20
2023-04-08T23:47:25.841Z,88.30
2023-04-08T23:49:53.067Z,88.40
2023-04-08T23:52:20.351Z,88.50
2023-04-08T23:54:51.211Z,88.70
2023-04-08T23:57:20.396Z,88.70
2023-04-08T23:59:47.929Z,88.70
